Time;durP1;ratioP1;P1;durP2;ratioP2;P2;SDS_P1;SDS_P2;PMS_P1;PMS_P2;Temp;Humidity;BMP_temperature;BMP_pressure;BME280_temperature;BME280_humidity;BME280_pressure;Samples;Min_cycle;Max_cycle;Signal;HPM_P1;HPM_P2
2021/05/01 00:00:48;;;;;;;3.30;2.63;;;22.20;39.70;;;;;;5031522;28;20387;-65
2021/05/01 00:03:13;;;;;;;3.23;2.30;;;22.20;39.80;;;;;;5031417;28;20403;-65
2021/05/01 00:05:39;;;;;;;3.00;2.55;;;22.20;39.80;;;;;;5030805;28;20974;-65
2021/05/01 00:08:05;;;;;;;3.13;2.50;;;22.20;39.70;;;;;;5030059;28;20790;-66
2021/05/01 00:10:31;;;;;;;2.65;2.00;;;22.20;39.80;;;;;;5030579;28;20462;-61
2021/05/01 00:12:56;;;;;;;3.30;2.40;;;22.20;39.80;;;;;;5032596;28;20478;-65
2021/05/01 00:15:22;;;;;;;3.13;2.30;;;22.20;39.80;;;;;;5032249;28;20460;-65
2021/05/01 00:17:48;;;;;;;2.92;2.25;;;22.10;39.80;;;;;;5032271;28;20395;-66
2021/05/01 00:20:14;;;;;;;3.05;2.10;;;22.10;39.70;;;;;;5032374;28;20425;-65
2021/05/01 00:22:39;;;;;;;2.70;2.10;;;22.10;39.80;;;;;;5032363;28;20533;-64
2021/05/01 00:25:06;;;;;;;2.50;2.15;;;22.10;39.80;;;;;;5032409;28;20806;-65
2021/05/01 00:27:32;;;;;;;2.93;2.43;;;22.10;39.80;;;;;;5031723;28;20571;-66
2021/05/01 00:29:57;;;;;;;2.63;2.00;;;22.10;39.80;;;;;;5028498;28;20457;-66
2021/05/01 00:32:23;;;;;;;3.00;2.20;;;22.10;39.80;;;;;;5032198;28;20391;-65
2021/05/01 00:34:48;;;;;;;2.80;2.33;;;22.10;40.40;;;;;;5030976;28;20498;-65
2021/05/01 00:37:14;;;;;;;3.00;2.20;;;22.10;39.80;;;;;;5030803;28;20387;-66
2021/05/01 00:39:40;;;;;;;2.60;2.25;;;22.10;39.80;;;;;;5031130;28;20405;-64
2021/05/01 00:42:05;;;;;;;2.50;2.28;;;22.10;39.80;;;;;;5031833;28;20403;-64
2021/05/01 00:44:31;;;;;;;2.23;1.90;;;22.10;39.80;;;;;;5031911;28;20402;-65
2021/05/01 00:46:57;;;;;;;2.92;2.30;;;22.10;39.80;;;;;;5032099;28;20386;-65
2021/05/01 00:49:22;;;;;;;2.47;2.00;;;22.10;39.80;;;;;;5031618;28;20875;-65
2021/05/01 00:51:48;;;;;;;3.38;2.38;;;22.10;39.80;;;;;;5030400;28;20457;-64
2021/05/01 00:54:14;;;;;;;2.70;2.13;;;22.10;40.40;;;;;;5027955;28;20389;-61
2021/05/01 00:56:41;;;;;;;3.28;2.38;;;22.10;39.80;;;;;;5014954;28;20871;-66
2021/05/01 00:59:07;;;;;;;2.72;2.22;;;22.00;39.70;;;;;;5012188;28;20385;-66
2021/05/01 01:01:32;;;;;;;3.10;2.53;;;22.00;39.70;;;;;;5011605;28;20393;-66
2021/05/01 01:03:58;;;;;;;3.05;2.30;;;22.00;39.80;;;;;;5012067;28;20389;-65
2021/05/01 01:06:24;;;;;;;3.65;2.85;;;22.00;39.80;;;;;;5010872;28;20412;-66
2021/05/01 01:08:49;;;;;;;3.63;3.03;;;22.00;39.80;;;;;;5011810;28;20826;-66
2021/05/01 01:11:15;;;;;;;3.72;2.83;;;22.00;40.00;;;;;;5011890;28;20393;-66
2021/05/01 01:13:41;;;;;;;3.53;2.67;;;22.00;40.00;;;;;;5011536;28;20388;-66
2021/05/01 01:16:07;;;;;;;4.30;2.50;;;22.00;40.00;;;;;;5011706;28;20749;-66
2021/05/01 01:18:33;;;;;;;3.10;2.40;;;22.00;40.10;;;;;;5011756;28;20389;-66
2021/05/01 01:21:02;;;;;;;3.40;2.50;;;22.00;40.10;;;;;;5011918;28;20385;-66
2021/05/01 01:23:28;;;;;;;3.70;2.60;;;21.90;40.10;;;;;;5011409;28;20393;-61
2021/05/01 01:25:54;;;;;;;4.03;2.23;;;21.90;40.00;;;;;;5011856;28;20503;-66
2021/05/01 01:28:20;;;;;;;3.50;2.53;;;22.00;40.70;;;;;;5011568;28;20413;-66
2021/05/01 01:30:45;;;;;;;3.47;2.53;;;21.90;40.00;;;;;;5011732;28;20404;-66
2021/05/01 01:33:12;;;;;;;2.92;2.40;;;21.90;40.00;;;;;;5011625;28;20415;-66
2021/05/01 01:35:38;;;;;;;3.30;2.70;;;21.90;40.10;;;;;;5010078;28;20394;-66
2021/05/01 01:38:05;;;;;;;2.88;2.35;;;21.90;40.00;;;;;;5011609;28;20475;-65
2021/05/01 01:40:32;;;;;;;4.07;2.60;;;21.90;40.10;;;;;;5011590;28;20488;-66
2021/05/01 01:42:57;;;;;;;3.55;2.53;;;21.90;40.10;;;;;;5011598;28;20451;-65
2021/05/01 01:45:27;;;;;;;3.50;2.50;;;21.90;40.00;;;;;;5011534;28;20392;-66
2021/05/01 01:47:53;;;;;;;3.90;2.70;;;21.90;40.60;;;;;;5011348;28;20412;-66
2021/05/01 01:50:20;;;;;;;2.75;2.47;;;21.90;40.00;;;;;;5011507;28;20483;-66
2021/05/01 01:52:46;;;;;;;3.00;2.42;;;21.90;40.60;;;;;;5011562;28;20420;-65
2021/05/01 01:55:16;;;;;;;3.30;2.33;;;21.90;40.60;;;;;;5011484;28;20940;-66
2021/05/01 01:57:42;;;;;;;3.00;2.53;;;21.90;40.00;;;;;;5011040;28;20393;-66
2021/05/01 02:00:11;;;;;;;4.50;2.63;;;21.90;40.10;;;;;;5011410;28;20419;-66
2021/05/01 02:02:37;;;;;;;2.90;2.50;;;21.80;40.00;;;;;;5011421;28;20389;-65
2021/05/01 02:05:03;;;;;;;3.40;2.60;;;21.80;40.00;;;;;;5011363;28;20520;-65
2021/05/01 02:07:29;;;;;;;2.70;2.20;;;21.90;40.10;;;;;;5011837;28;20381;-66
2021/05/01 02:09:55;;;;;;;3.08;2.58;;;21.80;40.10;;;;;;5014856;28;20403;-65
2021/05/01 02:12:21;;;;;;;2.87;2.40;;;21.80;40.10;;;;;;5015141;28;20396;-65
2021/05/01 02:14:47;;;;;;;2.83;2.25;;;21.80;40.10;;;;;;5015098;28;20750;-65
2021/05/01 02:17:12;;;;;;;2.80;2.20;;;21.80;40.10;;;;;;5014942;28;20416;-66
2021/05/01 02:19:38;;;;;;;3.23;2.50;;;21.80;40.10;;;;;;5014573;28;20399;-66
2021/05/01 02:22:03;;;;;;;2.40;2.00;;;21.80;40.10;;;;;;5014937;28;20902;-66
2021/05/01 02:24:29;;;;;;;2.43;2.10;;;21.80;40.10;;;;;;5014719;28;20482;-65
2021/05/01 02:26:55;;;;;;;2.72;2.50;;;21.80;40.10;;;;;;5013644;28;20405;-65
2021/05/01 02:29:21;;;;;;;2.78;2.30;;;21.80;40.10;;;;;;5014565;28;20427;-64
2021/05/01 02:31:46;;;;;;;3.00;2.70;;;21.80;40.10;;;;;;5014361;28;20384;-66
2021/05/01 02:34:12;;;;;;;2.55;2.35;;;21.70;40.10;;;;;;5014631;28;20435;-66
2021/05/01 02:36:38;;;;;;;3.10;2.50;;;21.70;40.00;;;;;;5014672;28;20393;-65
2021/05/01 02:39:05;;;;;;;3.40;2.40;;;21.80;40.10;;;;;;5014568;28;20836;-66
2021/05/01 02:41:31;;;;;;;2.38;2.17;;;21.70;40.10;;;;;;5013098;28;20416;-66
2021/05/01 02:43:57;;;;;;;3.10;2.30;;;21.70;40.70;;;;;;5014423;28;20423;-66
2021/05/01 02:46:22;;;;;;;2.60;2.10;;;21.80;40.20;;;;;;5014378;28;20396;-66
2021/05/01 02:48:48;;;;;;;2.90;2.33;;;21.70;40.10;;;;;;5014451;28;20416;-66
2021/05/01 02:51:13;;;;;;;2.42;2.05;;;21.70;40.10;;;;;;5014268;28;20923;-65
2021/05/01 02:53:39;;;;;;;2.37;2.10;;;21.70;40.10;;;;;;5013821;28;20440;-66
2021/05/01 02:56:05;;;;;;;2.33;2.10;;;21.70;40.10;;;;;;5013119;28;20392;-66
2021/05/01 02:58:30;;;;;;;2.70;2.43;;;21.70;40.10;;;;;;5014216;28;20873;-66
2021/05/01 03:00:56;;;;;;;2.30;2.10;;;21.70;40.10;;;;;;5014175;28;20424;-67
2021/05/01 03:03:22;;;;;;;2.80;2.43;;;21.70;40.10;;;;;;5014103;28;20436;-66
2021/05/01 03:05:47;;;;;;;2.35;2.05;;;21.70;40.10;;;;;;5013553;28;20884;-66
2021/05/01 03:08:13;;;;;;;2.30;2.10;;;21.70;40.10;;;;;;5014029;28;20973;-66
2021/05/01 03:10:39;;;;;;;2.60;2.17;;;21.70;40.10;;;;;;5014026;28;20393;-66
2021/05/01 03:13:04;;;;;;;2.75;2.00;;;21.70;40.20;;;;;;5014091;28;20849;-66
2021/05/01 03:15:30;;;;;;;2.47;2.20;;;21.70;40.10;;;;;;5013819;28;20421;-66
2021/05/01 03:17:56;;;;;;;2.47;2.20;;;21.70;40.10;;;;;;5013634;28;20424;-65
2021/05/01 03:20:22;;;;;;;2.35;1.85;;;21.70;40.10;;;;;;5013098;28;20498;-65
2021/05/01 03:22:48;;;;;;;2.53;2.05;;;21.60;40.10;;;;;;5013825;28;20861;-65
2021/05/01 03:25:18;;;;;;;2.60;2.40;;;21.60;40.00;;;;;;5013711;28;20397;-65
2021/05/01 03:27:44;;;;;;;2.25;2.00;;;21.60;40.10;;;;;;5013225;28;20758;-66
2021/05/01 03:30:13;;;;;;;1.90;1.55;;;21.70;40.30;;;;;;5013482;28;20389;-65
2021/05/01 03:32:40;;;;;;;1.65;1.40;;;21.70;40.00;;;;;;5013662;28;20389;-65
2021/05/01 03:35:07;;;;;;;1.65;1.30;;;21.70;40.00;;;;;;5013626;28;20462;-64
2021/05/01 03:37:33;;;;;;;1.80;1.40;;;21.80;39.80;;;;;;5013201;28;20392;-65
2021/05/01 03:39:59;;;;;;;1.90;1.40;;;21.90;39.60;;;;;;5013214;28;20389;-66
2021/05/01 03:42:25;;;;;;;1.63;1.33;;;22.00;39.40;;;;;;5013360;28;20446;-65
2021/05/01 03:44:50;;;;;;;1.60;1.10;;;22.00;39.30;;;;;;5013483;28;20393;-65
2021/05/01 03:47:16;;;;;;;1.52;1.20;;;22.10;39.30;;;;;;5013139;28;20403;-64
2021/05/01 03:49:42;;;;;;;1.48;1.20;;;22.10;39.20;;;;;;5012843;28;20412;-65
2021/05/01 03:52:07;;;;;;;3.10;1.30;;;22.10;39.20;;;;;;5013175;28;20388;-63
2021/05/01 03:54:33;;;;;;;1.87;1.23;;;22.20;39.20;;;;;;5013157;28;20435;-65
2021/05/01 03:56:59;;;;;;;1.50;1.20;;;22.20;39.10;;;;;;5013140;28;20385;-65
2021/05/01 03:59:26;;;;;;;1.45;1.10;;;22.20;39.00;;;;;;5013043;28;20469;-63
2021/05/01 04:01:51;;;;;;;1.55;1.10;;;22.30;39.00;;;;;;5012601;28;20857;-66
2021/05/01 04:04:18;;;;;;;2.05;1.23;;;22.30;38.90;;;;;;5011814;28;20476;-66
2021/05/01 04:06:44;;;;;;;1.40;1.10;;;22.30;38.80;;;;;;5012764;28;20880;-66
2021/05/01 04:09:10;;;;;;;1.60;1.10;;;22.30;38.80;;;;;;5012796;28;20424;-66
2021/05/01 04:11:35;;;;;;;1.63;1.20;;;22.30;38.80;;;;;;5012709;28;20883;-65
2021/05/01 04:14:01;;;;;;;1.40;1.20;;;22.40;38.80;;;;;;5012679;28;20421;-66
2021/05/01 04:16:27;;;;;;;2.17;1.10;;;22.40;38.70;;;;;;5012765;28;20443;-65
2021/05/01 04:18:52;;;;;;;1.40;1.20;;;22.40;38.70;;;;;;5012811;28;20397;-66
2021/05/01 04:21:18;;;;;;;1.83;1.27;;;22.40;38.60;;;;;;5012602;28;20392;-66
2021/05/01 04:23:44;;;;;;;1.90;1.20;;;22.40;38.50;;;;;;5012316;28;20392;-65
2021/05/01 04:26:10;;;;;;;1.40;1.10;;;22.50;38.50;;;;;;5012519;28;20397;-66
2021/05/01 04:28:35;;;;;;;1.50;1.20;;;22.50;38.50;;;;;;5012497;28;20409;-66
2021/05/01 04:31:01;;;;;;;1.83;1.20;;;22.50;38.50;;;;;;5011694;28;20396;-66
2021/05/01 04:33:28;;;;;;;1.25;1.00;;;22.50;39.10;;;;;;5012457;28;20401;-64
2021/05/01 04:35:54;;;;;;;1.75;1.00;;;22.50;38.50;;;;;;5011842;28;20476;-66
2021/05/01 04:38:20;;;;;;;1.60;1.40;;;22.50;38.50;;;;;;5012378;28;20461;-66
2021/05/01 04:40:47;;;;;;;1.40;1.10;;;22.50;38.40;;;;;;5012442;28;20400;-65
2021/05/01 04:43:13;;;;;;;1.58;1.20;;;22.50;39.00;;;;;;5012247;28;20749;-65
2021/05/01 04:45:39;;;;;;;1.40;1.07;;;22.50;38.30;;;;;;5012163;28;20396;-64
2021/05/01 04:48:07;;;;;;;1.35;1.20;;;22.50;38.30;;;;;;5012186;28;20408;-65
2021/05/01 04:50:33;;;;;;;1.30;1.10;;;22.60;38.30;;;;;;5011012;28;20401;-66
2021/05/01 04:52:59;;;;;;;1.27;1.10;;;22.60;38.30;;;;;;5012283;28;20498;-66
2021/05/01 04:55:26;;;;;;;1.75;1.30;;;22.60;38.30;;;;;;5012145;28;20817;-66
2021/05/01 04:57:52;;;;;;;1.20;0.90;;;22.60;38.20;;;;;;5011706;28;20480;-63
2021/05/01 05:00:20;;;;;;;1.17;0.90;;;22.60;38.20;;;;;;5012065;28;20388;-66
2021/05/01 05:02:46;;;;;;;1.80;1.00;;;22.60;38.30;;;;;;5012050;28;20392;-64
2021/05/01 05:05:13;;;;;;;1.63;1.20;;;22.60;38.40;;;;;;5011731;28;20861;-65
2021/05/01 05:07:39;;;;;;;1.52;1.10;;;22.60;38.30;;;;;;5011599;28;20503;-65
2021/05/01 05:10:06;;;;;;;3.80;1.30;;;22.60;38.30;;;;;;5011886;28;20384;-65
2021/05/01 05:12:32;;;;;;;2.10;1.20;;;22.60;38.50;;;;;;5010713;28;20450;-61
2021/05/01 05:14:58;;;;;;;2.80;1.20;;;22.60;38.50;;;;;;5011979;28;20401;-63
2021/05/01 05:17:23;;;;;;;2.40;1.20;;;22.60;39.10;;;;;;5012056;28;20492;-65
2021/05/01 05:19:49;;;;;;;2.58;1.17;;;22.60;38.50;;;;;;5011386;28;20390;-65
2021/05/01 05:22:15;;;;;;;2.17;1.37;;;22.60;38.60;;;;;;5011831;28;20399;-61
2021/05/01 05:24:41;;;;;;;1.70;1.15;;;22.60;38.70;;;;;;5011862;28;20389;-61
2021/05/01 05:27:07;;;;;;;2.00;1.02;;;22.60;38.80;;;;;;5011709;28;20926;-65
2021/05/01 05:29:34;;;;;;;1.95;1.00;;;22.60;38.70;;;;;;5011625;28;20425;-62
2021/05/01 05:32:00;;;;;;;1.92;1.20;;;22.60;38.50;;;;;;5011259;28;20385;-61
2021/05/01 05:34:25;;;;;;;2.28;1.00;;;22.60;39.30;;;;;;5011567;28;20839;-65
2021/05/01 05:36:51;;;;;;;2.50;1.10;;;22.60;38.90;;;;;;5011558;28;20519;-65
2021/05/01 05:39:17;;;;;;;2.43;1.00;;;22.60;38.80;;;;;;5011545;28;20403;-65
2021/05/01 05:41:43;;;;;;;2.10;1.40;;;22.60;39.00;;;;;;5011413;28;20479;-66
2021/05/01 05:44:09;;;;;;;2.33;1.30;;;22.60;38.80;;;;;;5015297;28;20389;-66
2021/05/01 05:46:35;;;;;;;1.60;1.10;;;22.60;38.60;;;;;;5015567;28;20887;-66
2021/05/01 05:49:00;;;;;;;2.57;1.20;;;22.70;39.00;;;;;;5015494;28;20416;-66
2021/05/01 05:51:26;;;;;;;2.15;1.02;;;22.70;38.80;;;;;;5015445;28;20384;-64
2021/05/01 05:53:52;;;;;;;2.00;0.90;;;22.70;38.60;;;;;;5015012;28;20401;-66
2021/05/01 05:56:18;;;;;;;1.33;1.10;;;22.70;38.50;;;;;;5015277;28;20388;-66
2021/05/01 05:58:46;;;;;;;2.28;1.10;;;22.70;38.60;;;;;;5014090;28;20793;-66
2021/05/01 06:01:12;;;;;;;2.15;1.10;;;22.70;38.50;;;;;;5015267;28;20404;-66
2021/05/01 06:03:38;;;;;;;2.00;1.00;;;22.70;38.80;;;;;;5015609;28;20757;-66
2021/05/01 06:06:09;;;;;;;1.83;1.00;;;22.70;39.20;;;;;;5015151;28;20844;-64
2021/05/01 06:08:36;;;;;;;3.65;1.30;;;22.70;39.80;;;;;;5013844;28;20413;-64
2021/05/01 06:11:03;;;;;;;2.88;1.30;;;22.70;40.20;;;;;;5015064;28;20424;-65
2021/05/01 06:13:32;;;;;;;4.30;1.30;;;22.80;40.40;;;;;;5015094;28;20396;-66
2021/05/01 06:15:59;;;;;;;2.60;1.10;;;22.80;40.40;;;;;;5014557;28;20476;-66
2021/05/01 06:18:26;;;;;;;3.90;1.25;;;22.80;39.90;;;;;;5015050;28;20451;-66
2021/05/01 06:20:53;;;;;;;4.30;1.20;;;22.70;40.50;;;;;;5015111;28;20389;-66
2021/05/01 06:23:20;;;;;;;1.80;1.00;;;22.70;40.40;;;;;;5014976;28;20395;-66
2021/05/01 06:25:47;;;;;;;3.42;1.30;;;22.80;40.20;;;;;;5014581;28;20896;-62
2021/05/01 06:28:14;;;;;;;2.95;1.05;;;22.80;40.90;;;;;;5014981;28;20432;-65
2021/05/01 06:30:42;;;;;;;2.70;1.00;;;22.80;40.90;;;;;;5014865;28;20381;-66
2021/05/01 06:33:11;;;;;;;2.50;1.10;;;22.80;41.40;;;;;;5014720;28;20447;-66
2021/05/01 06:35:41;;;;;;;3.30;1.02;;;22.90;42.00;;;;;;5014850;28;20428;-65
2021/05/01 06:38:07;;;;;;;2.78;1.05;;;22.90;42.10;;;;;;5012822;28;20889;-65
2021/05/01 06:40:37;;;;;;;4.82;1.35;;;23.00;42.10;;;;;;5014543;28;20397;-66
2021/05/01 06:43:14;;;;;;;2.42;1.02;;;23.10;42.20;;;;;;5014579;28;20393;-66
2021/05/01 06:45:41;;;;;;;2.30;1.10;;;23.20;42.80;;;;;;5014462;28;20419;-66
2021/05/01 06:48:11;;;;;;;4.07;1.20;;;23.20;41.70;;;;;;5013981;28;20420;-65
2021/05/01 06:50:39;;;;;;;2.63;1.13;;;23.20;41.60;;;;;;5014455;28;20413;-66
2021/05/01 06:53:05;;;;;;;3.08;1.20;;;23.30;41.30;;;;;;5014282;28;20857;-64
2021/05/01 06:55:33;;;;;;;3.20;1.15;;;23.30;41.40;;;;;;5011989;28;20825;-66
2021/05/01 06:58:00;;;;;;;3.05;1.30;;;23.30;41.20;;;;;;5013800;28;20440;-66
2021/05/01 07:00:27;;;;;;;2.97;1.30;;;23.30;41.20;;;;;;5014064;28;20389;-65
2021/05/01 07:03:04;;;;;;;2.30;1.10;;;23.30;41.10;;;;;;5014233;28;20408;-65
2021/05/01 07:05:30;;;;;;;2.93;1.27;;;23.30;41.10;;;;;;5013904;28;20412;-65
2021/05/01 07:07:56;;;;;;;1.70;1.20;;;23.30;40.60;;;;;;5013548;28;20520;-65
2021/05/01 07:10:22;;;;;;;2.33;1.30;;;23.40;40.30;;;;;;5013890;28;20893;-66
2021/05/01 07:12:47;;;;;;;1.48;1.10;;;23.40;39.90;;;;;;5014036;28;20476;-65
2021/05/01 07:15:18;;;;;;;2.50;1.10;;;23.40;40.00;;;;;;5013902;28;20788;-66
2021/05/01 07:17:48;;;;;;;2.03;1.35;;;23.40;39.30;;;;;;5013699;28;20919;-66
2021/05/01 07:20:14;;;;;;;2.70;1.20;;;23.50;39.40;;;;;;5013966;28;20393;-65
2021/05/01 07:22:41;;;;;;;2.30;1.25;;;23.50;39.20;;;;;;5012975;28;20443;-65
2021/05/01 07:25:10;;;;;;;1.30;0.93;;;23.60;38.90;;;;;;5013911;28;20489;-65
2021/05/01 07:27:41;;;;;;;1.70;1.10;;;23.70;38.80;;;;;;5013727;28;20404;-65
2021/05/01 07:30:07;;;;;;;2.70;1.10;;;23.70;38.60;;;;;;5013266;28;20856;-61
2021/05/01 07:32:36;;;;;;;1.80;1.08;;;23.70;38.60;;;;;;5013599;28;20848;-66
2021/05/01 07:35:05;;;;;;;2.90;1.20;;;23.70;38.60;;;;;;5013168;28;20876;-65
2021/05/01 07:37:32;;;;;;;2.80;1.20;;;23.70;38.50;;;;;;5013277;28;20471;-66
2021/05/01 07:40:01;;;;;;;4.18;1.27;;;23.80;38.50;;;;;;5012841;28;20389;-66
2021/05/01 07:42:29;;;;;;;4.03;1.25;;;23.70;38.40;;;;;;5012985;28;20420;-66
2021/05/01 07:44:58;;;;;;;3.70;1.10;;;23.70;38.30;;;;;;5012100;28;20412;-66
2021/05/01 07:47:24;;;;;;;2.88;1.40;;;23.80;38.20;;;;;;5012865;28;20404;-66
2021/05/01 07:49:50;;;;;;;3.25;1.08;;;23.80;38.10;;;;;;5012661;28;20420;-63
2021/05/01 07:52:17;;;;;;;2.00;0.90;;;23.80;38.00;;;;;;5013014;28;20472;-66
2021/05/01 07:54:43;;;;;;;2.90;1.00;;;23.90;38.50;;;;;;5013152;28;20437;-66
2021/05/01 07:57:10;;;;;;;3.10;1.10;;;23.90;37.80;;;;;;5013151;28;20784;-66
2021/05/01 07:59:36;;;;;;;2.13;1.00;;;23.90;37.70;;;;;;5012856;28;20915;-66
2021/05/01 08:02:03;;;;;;;1.70;0.93;;;24.00;37.60;;;;;;5012719;28;20389;-65
2021/05/01 08:04:29;;;;;;;2.22;1.10;;;24.10;37.60;;;;;;5012848;28;20951;-66
2021/05/01 08:06:55;;;;;;;2.10;1.00;;;24.10;37.50;;;;;;5012694;28;20480;-66
2021/05/01 08:09:21;;;;;;;5.38;1.13;;;24.10;37.40;;;;;;5012663;28;20479;-62
2021/05/01 08:11:48;;;;;;;2.35;0.90;;;24.10;37.40;;;;;;5021995;28;20422;-64
2021/05/01 08:14:14;;;;;;;2.30;1.13;;;24.10;37.30;;;;;;5031150;28;20391;-65
2021/05/01 08:16:40;;;;;;;1.77;1.10;;;24.20;37.30;;;;;;5031461;28;20392;-67
2021/05/01 08:19:06;;;;;;;2.65;1.23;;;24.10;37.30;;;;;;5032550;28;20465;-66
2021/05/01 08:21:34;;;;;;;3.50;1.58;;;24.10;37.50;;;;;;5031305;28;20395;-62
2021/05/01 08:24:01;;;;;;;2.15;1.60;;;24.10;37.50;;;;;;5031888;28;20410;-62
2021/05/01 08:26:27;;;;;;;4.57;1.73;;;24.20;37.40;;;;;;5026291;28;20443;-64
2021/05/01 08:28:52;;;;;;;2.77;1.40;;;24.10;37.10;;;;;;5012293;28;20421;-63
2021/05/01 08:31:18;;;;;;;1.88;1.30;;;24.20;37.10;;;;;;5021588;28;20911;-66
2021/05/01 08:33:44;;;;;;;3.87;1.37;;;24.30;37.20;;;;;;5026277;28;20445;-64
2021/05/01 08:36:09;;;;;;;2.70;1.33;;;24.30;37.00;;;;;;5023285;28;20730;-66
2021/05/01 08:38:38;;;;;;;2.73;1.50;;;24.30;37.00;;;;;;5023100;28;20943;-66
2021/05/01 08:41:04;;;;;;;3.22;1.73;;;24.40;37.00;;;;;;5022380;28;20958;-67
2021/05/01 08:43:31;;;;;;;2.97;1.60;;;24.50;37.50;;;;;;5021944;28;20810;-61
2021/05/01 08:45:58;;;;;;;3.25;1.60;;;24.50;36.70;;;;;;5019401;28;20454;-64
2021/05/01 08:48:25;;;;;;;4.13;1.80;;;24.50;36.60;;;;;;5022192;28;20416;-66
2021/05/01 08:51:02;;;;;;;2.72;1.48;;;24.60;36.50;;;;;;5020428;28;20400;-62
2021/05/01 08:53:29;;;;;;;3.17;1.73;;;24.60;36.40;;;;;;5020628;28;20413;-67
2021/05/01 08:55:54;;;;;;;2.97;1.58;;;24.70;36.40;;;;;;5020524;28;20396;-66
2021/05/01 08:58:20;;;;;;;2.35;1.60;;;24.70;36.50;;;;;;5018284;28;20401;-66
2021/05/01 09:00:48;;;;;;;3.87;1.93;;;24.60;37.00;;;;;;5016985;28;20383;-65
2021/05/01 09:03:14;;;;;;;3.05;1.67;;;24.60;36.50;;;;;;5019843;28;20387;-67
2021/05/01 09:05:41;;;;;;;4.28;1.70;;;24.60;37.30;;;;;;5022003;28;20406;-68
2021/05/01 09:08:09;;;;;;;3.20;1.80;;;24.60;36.60;;;;;;5029952;28;20403;-67
2021/05/01 09:10:39;;;;;;;2.70;1.60;;;24.60;36.50;;;;;;5031681;28;20403;-67
2021/05/01 09:13:22;;;;;;;4.10;1.85;;;24.60;36.40;;;;;;5033576;28;20400;-66
2021/05/01 09:16:01;;;;;;;2.30;1.60;;;24.60;36.60;;;;;;5036895;28;20451;-64
2021/05/01 09:18:41;;;;;;;2.92;1.50;;;24.60;36.50;;;;;;5020812;28;20433;-65
2021/05/01 09:21:16;;;;;;;2.27;1.60;;;24.60;36.50;;;;;;5019679;28;20389;-63
2021/05/01 09:23:41;;;;;;;2.75;1.75;;;24.60;36.30;;;;;;5021464;28;20899;-68
2021/05/01 09:26:07;;;;;;;3.13;1.60;;;24.50;36.20;;;;;;5020739;28;20420;-66
2021/05/01 09:28:44;;;;;;;3.17;1.50;;;24.60;36.60;;;;;;5019366;28;20446;-65
2021/05/01 09:31:12;;;;;;;2.05;1.30;;;24.60;36.50;;;;;;5019404;28;20393;-63
2021/05/01 09:33:40;;;;;;;3.40;1.50;;;24.60;36.70;;;;;;5020800;28;20423;-63
2021/05/01 09:36:06;;;;;;;2.90;1.50;;;24.60;36.70;;;;;;5020469;28;20472;-63
2021/05/01 09:38:39;;;;;;;2.10;1.40;;;24.70;36.80;;;;;;5021589;28;20478;-60
2021/05/01 09:41:26;;;;;;;3.10;1.30;;;24.70;36.90;;;;;;5020830;28;20381;-64
2021/05/01 09:44:07;;;;;;;1.83;1.30;;;24.60;37.00;;;;;;5021502;28;20466;-67
2021/05/01 09:46:39;;;;;;;2.03;1.30;;;24.70;37.10;;;;;;5018770;28;20403;-65
2021/05/01 09:49:16;;;;;;;2.10;1.60;;;24.70;37.20;;;;;;5022315;28;20509;-66
2021/05/01 09:51:45;;;;;;;2.60;1.70;;;24.80;37.10;;;;;;5021250;28;20935;-66
2021/05/01 09:54:13;;;;;;;2.38;1.80;;;24.80;36.90;;;;;;5019866;28;20392;-65
2021/05/01 09:56:44;;;;;;;2.30;1.80;;;24.80;36.80;;;;;;5017879;28;20407;-67
2021/05/01 09:59:10;;;;;;;2.90;1.70;;;24.80;36.90;;;;;;5021995;28;20396;-66
2021/05/01 10:01:37;;;;;;;3.25;1.92;;;24.80;36.60;;;;;;5019240;28;20379;-60
2021/05/01 10:04:18;;;;;;;4.00;2.05;;;24.70;36.60;;;;;;5020626;28;20806;-72
2021/05/01 10:06:51;;;;;;;2.97;2.00;;;24.70;36.50;;;;;;5020701;28;20461;-67
2021/05/01 10:09:32;;;;;;;3.60;1.92;;;24.70;36.60;;;;;;5020967;28;20447;-64
2021/05/01 10:12:07;;;;;;;2.97;2.13;;;24.70;36.80;;;;;;5021011;28;20399;-66
2021/05/01 10:14:45;;;;;;;3.10;2.00;;;24.70;36.90;;;;;;5019744;28;20548;-63
2021/05/01 10:17:15;;;;;;;2.50;1.80;;;24.80;37.10;;;;;;5027644;28;20457;-64
2021/05/01 10:19:48;;;;;;;4.28;1.88;;;24.80;37.10;;;;;;5031129;28;20482;-67
2021/05/01 10:22:26;;;;;;;2.95;1.65;;;24.80;37.20;;;;;;5030677;28;20488;-64
2021/05/01 10:24:53;;;;;;;2.78;1.70;;;24.90;37.30;;;;;;5030970;28;20379;-66
2021/05/01 10:27:19;;;;;;;2.38;1.50;;;24.90;37.40;;;;;;5030950;28;20398;-67
2021/05/01 10:30:00;;;;;;;2.78;1.55;;;25.00;37.90;;;;;;5033426;28;20419;-65
2021/05/01 10:32:31;;;;;;;2.47;1.70;;;25.00;37.30;;;;;;5034575;28;20940;-66
2021/05/01 10:34:58;;;;;;;3.72;1.80;;;25.00;37.30;;;;;;5034528;28;20490;-61
2021/05/01 10:37:31;;;;;;;3.45;1.52;;;25.10;37.30;;;;;;5034420;28;20403;-59
2021/05/01 10:39:58;;;;;;;2.78;1.50;;;25.10;37.50;;;;;;5034526;28;20399;-61
2021/05/01 10:42:24;;;;;;;3.17;1.60;;;25.10;37.40;;;;;;5034284;28;20391;-61
2021/05/01 10:45:02;;;;;;;3.28;1.42;;;25.10;37.20;;;;;;5034418;28;20871;-66
2021/05/01 10:47:28;;;;;;;2.65;1.60;;;25.20;37.90;;;;;;5034160;28;20395;-65
2021/05/01 10:49:58;;;;;;;3.23;1.50;;;25.20;37.30;;;;;;5034245;28;20597;-66
2021/05/01 10:52:24;;;;;;;2.53;1.40;;;25.20;37.20;;;;;;5033904;28;20395;-66
2021/05/01 10:54:57;;;;;;;2.60;1.50;;;25.20;37.10;;;;;;5034160;28;20750;-65
2021/05/01 10:57:22;;;;;;;2.50;1.50;;;25.20;37.00;;;;;;5033947;28;21111;-67
2021/05/01 11:00:08;;;;;;;1.93;1.47;;;25.20;37.00;;;;;;5034044;28;20487;-66
2021/05/01 11:02:42;;;;;;;2.50;1.67;;;25.20;37.00;;;;;;5034086;28;20395;-66
2021/05/01 11:05:17;;;;;;;3.20;1.77;;;25.20;37.00;;;;;;5033688;28;20383;-66
2021/05/01 11:07:51;;;;;;;2.40;1.60;;;25.20;36.90;;;;;;5033935;28;20870;-66
2021/05/01 11:10:18;;;;;;;2.50;1.58;;;25.10;36.80;;;;;;5033340;28;20891;-65
2021/05/01 11:12:53;;;;;;;2.90;1.85;;;25.10;36.90;;;;;;5034312;28;20414;-66
2021/05/01 11:15:24;;;;;;;3.80;2.00;;;25.00;37.20;;;;;;5033484;28;20430;-62
2021/05/01 11:18:06;;;;;;;4.32;2.00;;;25.10;37.30;;;;;;5033581;28;20851;-65
2021/05/01 11:20:33;;;;;;;3.78;1.90;;;25.10;37.30;;;;;;5033629;28;20415;-63
2021/05/01 11:22:59;;;;;;;3.75;1.40;;;25.20;37.50;;;;;;5033583;28;20886;-61
2021/05/01 11:25:27;;;;;;;3.30;1.45;;;25.20;37.40;;;;;;5033416;28;20395;-66
2021/05/01 11:27:54;;;;;;;3.80;1.50;;;25.30;37.30;;;;;;5033423;28;20863;-65
2021/05/01 11:30:23;;;;;;;5.25;1.50;;;25.30;37.30;;;;;;5033020;28;20406;-60
2021/05/01 11:32:49;;;;;;;4.18;1.50;;;25.30;37.50;;;;;;5032221;28;20395;-63
2021/05/01 11:35:18;;;;;;;3.78;1.65;;;25.30;37.70;;;;;;5033212;28;20404;-66
2021/05/01 11:37:49;;;;;;;5.38;1.40;;;25.40;37.50;;;;;;5033255;28;20474;-65
2021/05/01 11:40:15;;;;;;;2.85;1.20;;;25.40;38.00;;;;;;5032423;28;20388;-65
2021/05/01 11:42:44;;;;;;;4.22;1.30;;;25.40;38.10;;;;;;5033286;28;20423;-65
2021/05/01 11:45:36;;;;;;;5.13;1.25;;;25.40;37.90;;;;;;5031701;28;20897;-64
2021/05/01 11:48:06;;;;;;;2.58;1.08;;;25.50;37.60;;;;;;5032745;28;20406;-63
2021/05/01 11:50:36;;;;;;;2.38;1.33;;;25.50;37.50;;;;;;5033060;28;20775;-61
2021/05/01 11:53:29;;;;;;;3.03;1.20;;;25.60;37.50;;;;;;5032946;28;20479;-62
2021/05/01 11:56:06;;;;;;;2.83;1.10;;;25.60;37.40;;;;;;5030405;28;20394;-66
2021/05/01 11:58:34;;;;;;;2.60;1.30;;;25.60;37.30;;;;;;5018714;28;20744;-61
2021/05/01 12:01:16;;;;;;;2.20;1.20;;;25.70;37.20;;;;;;5013149;28;20396;-66
2021/05/01 12:03:53;;;;;;;1.67;1.27;;;25.70;37.30;;;;;;5013149;28;20393;-65
2021/05/01 12:06:43;;;;;;;2.58;1.30;;;25.70;37.30;;;;;;5010934;28;20405;-66
2021/05/01 12:09:19;;;;;;;3.50;1.45;;;25.70;37.10;;;;;;5012845;28;20500;-66
2021/05/01 12:11:46;;;;;;;3.95;1.20;;;25.80;37.00;;;;;;5012735;28;20393;-65
2021/05/01 12:14:14;;;;;;;2.17;1.50;;;25.80;37.00;;;;;;5012171;28;20894;-66
2021/05/01 12:16:41;;;;;;;1.90;1.45;;;25.80;36.90;;;;;;5012494;28;20911;-67
2021/05/01 12:19:07;;;;;;;3.08;1.30;;;25.80;36.80;;;;;;5012535;28;20404;-65
2021/05/01 12:21:43;;;;;;;3.42;1.50;;;25.90;36.90;;;;;;5012562;28;20853;-66
2021/05/01 12:24:38;;;;;;;2.97;1.42;;;25.80;36.90;;;;;;5011885;28;20436;-66
2021/05/01 12:27:04;;;;;;;2.60;1.50;;;25.80;36.70;;;;;;5009576;28;20420;-66
2021/05/01 12:29:32;;;;;;;2.10;1.20;;;25.80;36.60;;;;;;5012397;28;20900;-66
2021/05/01 12:32:07;;;;;;;1.90;1.13;;;25.80;36.50;;;;;;5012238;28;20527;-66
2021/05/01 12:34:50;;;;;;;2.53;1.30;;;25.80;36.50;;;;;;5012309;28;20872;-66
2021/05/01 12:37:18;;;;;;;2.70;1.13;;;25.80;36.50;;;;;;5012356;28;20440;-65
2021/05/01 12:39:45;;;;;;;1.70;1.20;;;25.70;36.40;;;;;;5012322;28;20412;-66
2021/05/01 12:42:37;;;;;;;1.80;1.00;;;25.70;36.40;;;;;;5011802;28;20904;-66
2021/05/01 12:45:28;;;;;;;1.88;1.00;;;25.60;36.40;;;;;;5009347;28;20429;-66
2021/05/01 12:47:54;;;;;;;2.42;1.08;;;25.60;36.30;;;;;;5004031;28;20458;-65
2021/05/01 12:50:25;;;;;;;1.33;1.00;;;25.60;36.30;;;;;;5011635;28;20478;-66
2021/05/01 12:52:51;;;;;;;3.03;1.20;;;25.60;36.30;;;;;;5009886;28;20872;-66